Time;durP1;ratioP1;P1;durP2;ratioP2;P2;SDS_P1;SDS_P2;PMS_P1;PMS_P2;Temp;Humidity;BMP_temperature;BMP_pressure;BME280_temperature;BME280_humidity;BME280_pressure;Samples;Min_cycle;Max_cycle;Signal;HPM_P1;HPM_P2
2022/04/03 00:01:47;;;;;;;7.93;4.65;;;2.30;87.70;;;;;;5088781;28;20025;-80
2022/04/03 00:04:14;;;;;;;8.43;4.40;;;2.30;88.50;;;;;;5063919;28;20021;-77
2022/04/03 00:06:39;;;;;;;8.15;4.53;;;2.40;88.20;;;;;;5043168;28;20029;-79
2022/04/03 00:09:05;;;;;;;7.53;4.30;;;2.30;88.70;;;;;;5060495;28;20060;-79
2022/04/03 00:11:31;;;;;;;8.73;4.50;;;2.40;89.60;;;;;;5045799;28;20032;-80
2022/04/03 00:13:57;;;;;;;6.75;4.18;;;2.30;89.60;;;;;;5056009;28;20052;-78
2022/04/03 00:16:22;;;;;;;7.82;4.35;;;2.40;89.70;;;;;;5056155;28;20029;-78
2022/04/03 00:18:49;;;;;;;9.73;5.05;;;2.30;89.20;;;;;;5057481;28;20033;-78
2022/04/03 00:21:16;;;;;;;8.10;4.55;;;2.30;90.20;;;;;;5057388;28;20028;-78
2022/04/03 00:23:42;;;;;;;7.63;4.20;;;2.30;89.70;;;;;;5073061;28;20502;-79
2022/04/03 00:26:08;;;;;;;9.35;5.10;;;2.30;90.10;;;;;;5060913;28;20076;-78
2022/04/03 00:28:33;;;;;;;8.85;4.80;;;2.30;90.30;;;;;;5061260;28;20071;-79
2022/04/03 00:30:59;;;;;;;8.25;4.60;;;2.30;90.90;;;;;;5047290;28;20031;-80
2022/04/03 00:33:25;;;;;;;7.65;4.80;;;2.30;91.50;;;;;;5062025;28;20020;-79
2022/04/03 00:35:51;;;;;;;8.70;4.30;;;2.30;92.20;;;;;;5044106;28;20575;-78
2022/04/03 00:38:18;;;;;;;7.07;4.32;;;2.30;92.20;;;;;;5043404;28;20167;-79
2022/04/03 00:40:47;;;;;;;7.78;4.13;;;2.30;92.50;;;;;;5061699;28;20036;-79
2022/04/03 00:43:13;;;;;;;7.38;4.45;;;2.30;92.60;;;;;;5091697;28;20029;-78
2022/04/03 00:45:43;;;;;;;7.53;4.40;;;2.30;92.90;;;;;;5046530;28;20031;-80
2022/04/03 00:48:10;;;;;;;7.07;4.28;;;2.30;93.10;;;;;;5063157;28;20055;-79
2022/04/03 00:50:35;;;;;;;7.82;3.80;;;2.30;92.80;;;;;;5063611;28;20021;-80
2022/04/03 00:53:01;;;;;;;8.40;4.30;;;2.20;93.00;;;;;;5061003;28;20067;-79
2022/04/03 00:55:30;;;;;;;8.88;4.32;;;2.20;93.50;;;;;;5062122;28;20104;-79
2022/04/03 00:57:59;;;;;;;8.63;4.40;;;2.20;94.00;;;;;;5043371;28;20097;-78
2022/04/03 01:00:25;;;;;;;7.93;4.15;;;2.20;94.20;;;;;;5061164;28;20044;-78
2022/04/03 01:02:50;;;;;;;8.80;5.30;;;2.20;94.50;;;;;;5059866;28;20025;-79
2022/04/03 01:05:16;;;;;;;7.75;4.20;;;2.20;94.80;;;;;;5040064;28;20374;-78
2022/04/03 01:07:43;;;;;;;7.25;4.05;;;2.20;95.40;;;;;;5056861;28;20029;-79
2022/04/03 01:10:09;;;;;;;8.10;4.60;;;2.20;95.20;;;;;;5054541;28;20035;-79
2022/04/03 01:12:40;;;;;;;13.75;6.18;;;2.30;95.90;;;;;;5084865;28;20455;-81
2022/04/03 01:15:06;;;;;;;13.70;6.40;;;2.30;99.90;;;;;;5053100;28;20028;-79
2022/04/03 01:17:32;;;;;;;12.65;5.95;;;2.30;99.90;;;;;;5051931;28;20036;-79
2022/04/03 01:19:58;;;;;;;12.13;6.38;;;2.20;99.70;;;;;;5055272;28;20043;-80
2022/04/03 01:22:24;;;;;;;10.63;5.35;;;2.20;99.90;;;;;;5038721;28;20405;-78
2022/04/03 01:24:56;;;;;;;9.02;5.25;;;2.20;99.70;;;;;;5053967;28;20032;-79
2022/04/03 01:27:22;;;;;;;12.43;5.75;;;2.20;99.80;;;;;;5054298;28;20025;-78
2022/04/03 01:29:49;;;;;;;12.10;5.55;;;2.20;99.90;;;;;;5054153;28;20056;-79
2022/04/03 01:32:14;;;;;;;16.20;5.95;;;2.20;99.90;;;;;;5038072;28;20059;-79
2022/04/03 01:34:41;;;;;;;12.80;5.63;;;2.20;99.90;;;;;;5051853;28;20053;-79
2022/04/03 01:37:07;;;;;;;11.85;5.63;;;2.30;99.90;;;;;;5089959;28;20025;-78
2022/04/03 01:39:33;;;;;;;10.68;5.90;;;2.30;99.90;;;;;;5066597;28;20512;-78
2022/04/03 01:41:59;;;;;;;17.67;5.93;;;2.30;99.90;;;;;;5057990;28;20017;-78
2022/04/03 01:44:25;;;;;;;11.77;5.55;;;2.30;99.90;;;;;;5055757;28;20449;-79
2022/04/03 01:46:50;;;;;;;9.75;5.25;;;2.30;99.90;;;;;;5039308;28;20041;-80
2022/04/03 01:49:16;;;;;;;12.73;5.63;;;2.20;99.90;;;;;;5035896;28;20033;-78
2022/04/03 01:51:43;;;;;;;14.55;5.72;;;2.20;99.90;;;;;;5052329;28;20533;-79
2022/04/03 01:54:08;;;;;;;9.93;5.20;;;2.20;99.90;;;;;;5054621;28;20041;-79
2022/04/03 01:56:34;;;;;;;11.02;5.45;;;2.20;99.90;;;;;;5055829;28;20108;-79
2022/04/03 01:59:01;;;;;;;10.07;4.88;;;2.20;99.90;;;;;;5053596;28;20025;-78
2022/04/03 02:01:32;;;;;;;11.50;5.22;;;2.20;99.90;;;;;;5056639;28;20045;-79
2022/04/03 02:03:58;;;;;;;9.75;5.72;;;2.10;99.90;;;;;;5051514;28;20020;-79
2022/04/03 02:06:24;;;;;;;9.82;5.30;;;2.00;99.90;;;;;;5053641;28;20037;-79
2022/04/03 02:08:50;;;;;;;13.73;5.00;;;2.00;99.90;;;;;;5036684;28;20051;-78
2022/04/03 02:11:15;;;;;;;8.05;4.45;;;2.00;99.90;;;;;;5051618;28;20036;-79
2022/04/03 02:13:41;;;;;;;9.48;4.78;;;1.90;99.90;;;;;;5053958;28;20447;-78
2022/04/03 02:16:10;;;;;;;9.52;4.93;;;1.90;99.90;;;;;;5064268;28;20037;-78
2022/04/03 02:18:36;;;;;;;10.13;5.32;;;1.80;99.90;;;;;;5055212;28;20025;-79
2022/04/03 02:21:04;;;;;;;9.48;4.90;;;1.90;99.90;;;;;;5053410;28;20025;-79
2022/04/03 02:23:30;;;;;;;8.07;4.80;;;1.90;99.90;;;;;;5036934;28;20025;-79
2022/04/03 02:25:56;;;;;;;11.40;5.07;;;1.80;99.90;;;;;;5037976;28;20480;-79
2022/04/03 02:28:22;;;;;;;8.18;4.45;;;1.70;99.90;;;;;;5038545;28;20492;-79
2022/04/03 02:30:48;;;;;;;12.27;4.68;;;1.70;99.90;;;;;;5071173;28;20040;-79
2022/04/03 02:33:13;;;;;;;9.10;4.93;;;1.60;99.90;;;;;;5086235;28;20057;-78
2022/04/03 02:35:39;;;;;;;9.95;5.15;;;1.70;99.90;;;;;;5052283;28;20037;-78
2022/04/03 02:38:05;;;;;;;19.70;5.28;;;1.60;99.90;;;;;;5036947;28;20151;-79
2022/04/03 02:40:31;;;;;;;15.95;6.80;;;1.60;99.90;;;;;;5054070;28;20025;-79
2022/04/03 02:42:57;;;;;;;11.02;4.82;;;1.60;99.90;;;;;;5050555;28;20047;-78
2022/04/03 02:45:23;;;;;;;10.50;4.95;;;1.50;99.90;;;;;;5055620;28;20780;-79
2022/04/03 02:47:54;;;;;;;9.07;4.18;;;1.50;99.90;;;;;;5053528;28;20029;-79
2022/04/03 02:50:21;;;;;;;9.80;4.50;;;1.60;99.90;;;;;;5051270;28;20027;-79
2022/04/03 02:52:49;;;;;;;10.73;5.18;;;1.60;99.90;;;;;;5055445;28;20044;-78
2022/04/03 02:55:16;;;;;;;9.43;4.90;;;1.50;99.90;;;;;;5051083;28;20055;-79
2022/04/03 02:57:42;;;;;;;8.98;4.78;;;1.60;99.90;;;;;;5052981;28;20029;-80
2022/04/03 03:00:08;;;;;;;10.10;5.18;;;1.50;99.90;;;;;;5050534;28;20051;-79
2022/04/03 03:02:34;;;;;;;7.57;4.65;;;1.40;99.90;;;;;;5035725;28;20025;-79
2022/04/03 03:05:00;;;;;;;8.85;4.63;;;1.40;99.90;;;;;;5053495;28;20028;-79
2022/04/03 03:07:36;;;;;;;9.48;4.68;;;1.40;99.90;;;;;;5059205;28;20055;-78
2022/04/03 03:10:02;;;;;;;10.63;4.28;;;1.50;99.90;;;;;;5066792;28;20025;-78
2022/04/03 03:12:29;;;;;;;7.13;3.88;;;1.40;99.90;;;;;;5039255;28;20032;-79
2022/04/03 03:14:56;;;;;;;6.57;3.83;;;1.40;99.90;;;;;;5051915;28;20028;-80
2022/04/03 03:17:22;;;;;;;9.73;4.57;;;1.40;99.90;;;;;;5051490;28;20078;-79
2022/04/03 03:19:48;;;;;;;8.23;5.07;;;1.40;99.90;;;;;;5051324;28;20527;-79
2022/04/03 03:22:13;;;;;;;10.18;4.25;;;1.40;99.90;;;;;;5053422;28;20028;-79
2022/04/03 03:24:39;;;;;;;8.45;4.28;;;1.40;99.90;;;;;;5053602;28;20029;-79
2022/04/03 03:27:05;;;;;;;7.95;4.95;;;1.40;99.90;;;;;;5053099;28;20028;-79
2022/04/03 03:29:31;;;;;;;12.23;4.68;;;1.40;99.90;;;;;;5053432;28;20025;-79
2022/04/03 03:31:56;;;;;;;10.10;4.88;;;1.40;99.90;;;;;;5051553;28;20204;-78
2022/04/03 03:34:22;;;;;;;9.57;4.38;;;1.40;99.90;;;;;;5071874;28;20040;-79
2022/04/03 03:36:48;;;;;;;6.53;4.22;;;1.30;99.90;;;;;;5039729;28;20318;-79
2022/04/03 03:39:14;;;;;;;8.50;4.10;;;1.40;99.90;;;;;;5056221;28;20029;-79
2022/04/03 03:41:40;;;;;;;8.00;4.30;;;1.40;99.90;;;;;;5040174;28;20086;-79
2022/04/03 03:44:10;;;;;;;10.38;4.05;;;1.40;99.90;;;;;;5040645;28;20132;-79
2022/04/03 03:46:40;;;;;;;8.02;4.30;;;1.40;99.90;;;;;;5055913;28;20088;-79
2022/04/03 03:49:09;;;;;;;8.77;4.38;;;1.40;99.90;;;;;;5089762;28;20029;-79
2022/04/03 03:51:37;;;;;;;8.65;4.30;;;1.30;99.90;;;;;;5042186;28;20032;-79
2022/04/03 03:54:04;;;;;;;9.25;4.15;;;1.20;99.90;;;;;;5055312;28;20690;-79
2022/04/03 03:56:30;;;;;;;9.32;4.65;;;1.20;99.90;;;;;;5057592;28;20037;-79
2022/04/03 03:58:56;;;;;;;9.70;4.65;;;1.20;99.90;;;;;;5059435;28;20036;-79
2022/04/03 04:01:22;;;;;;;9.30;4.10;;;1.10;99.90;;;;;;5060951;28;20027;-79
2022/04/03 04:03:48;;;;;;;7.53;4.38;;;1.10;99.90;;;;;;5055698;28;20021;-78
2022/04/03 04:06:14;;;;;;;7.70;4.13;;;1.10;99.90;;;;;;5053451;28;20028;-79
2022/04/03 04:08:40;;;;;;;7.63;4.50;;;1.10;99.90;;;;;;5052625;28;20033;-79
2022/04/03 04:11:06;;;;;;;10.57;4.95;;;1.20;99.90;;;;;;5072813;28;20025;-79
2022/04/03 04:13:32;;;;;;;6.85;3.75;;;1.20;99.90;;;;;;5056408;28;20032;-79
2022/04/03 04:15:58;;;;;;;8.88;4.32;;;1.10;99.90;;;;;;5032072;28;20091;-79
2022/04/03 04:18:24;;;;;;;7.50;4.45;;;1.10;99.90;;;;;;5055371;28;20033;-79
2022/04/03 04:20:53;;;;;;;7.53;4.65;;;1.10;99.90;;;;;;5058041;28;20040;-79
2022/04/03 04:23:19;;;;;;;6.00;3.58;;;1.10;99.90;;;;;;5054999;28;20036;-78
2022/04/03 04:25:46;;;;;;;9.05;4.70;;;1.10;99.90;;;;;;5055047;28;20050;-79
2022/04/03 04:28:15;;;;;;;6.82;4.00;;;1.10;99.90;;;;;;5056286;28;20044;-78
2022/04/03 04:30:41;;;;;;;7.35;3.58;;;1.00;99.90;;;;;;5056630;28;20032;-79
2022/04/03 04:33:06;;;;;;;7.22;3.58;;;1.00;99.90;;;;;;5054866;28;20082;-79
2022/04/03 04:35:33;;;;;;;11.65;4.35;;;1.00;99.90;;;;;;5057090;28;20028;-79
2022/04/03 04:37:58;;;;;;;7.40;4.00;;;1.00;99.90;;;;;;5084309;28;20025;-78
2022/04/03 04:40:24;;;;;;;9.95;4.13;;;1.00;99.90;;;;;;5097679;28;20084;-79
2022/04/03 04:42:50;;;;;;;10.15;4.22;;;1.00;99.90;;;;;;5041543;28;20033;-79
2022/04/03 04:45:16;;;;;;;5.78;4.30;;;0.90;99.90;;;;;;5039620;28;20119;-79
2022/04/03 04:47:41;;;;;;;6.53;3.83;;;0.90;99.90;;;;;;5054352;28;20098;-79
2022/04/03 04:50:14;;;;;;;8.18;4.07;;;0.90;99.90;;;;;;5039580;28;20456;-78
2022/04/03 04:52:40;;;;;;;10.68;4.25;;;1.00;99.90;;;;;;5073406;28;20116;-78
2022/04/03 04:55:08;;;;;;;6.82;3.83;;;1.00;99.90;;;;;;5055530;28;20052;-80
2022/04/03 04:57:34;;;;;;;7.05;4.32;;;1.00;99.90;;;;;;5053499;28;20163;-79
2022/04/03 05:00:00;;;;;;;6.97;3.80;;;1.00;99.90;;;;;;5056278;28;20021;-79
2022/04/03 05:02:26;;;;;;;10.35;3.80;;;1.10;99.90;;;;;;5052938;28;20108;-79
2022/04/03 05:04:52;;;;;;;6.45;4.40;;;1.00;99.90;;;;;;5055686;28;20067;-79
2022/04/03 05:07:18;;;;;;;10.32;4.10;;;1.00;99.90;;;;;;5056235;28;20029;-78
2022/04/03 05:09:46;;;;;;;8.30;3.80;;;1.00;99.90;;;;;;5053147;28;20037;-79
2022/04/03 05:12:13;;;;;;;9.88;4.45;;;1.10;99.90;;;;;;5071306;28;20096;-79
2022/04/03 05:14:39;;;;;;;8.80;4.50;;;1.10;99.90;;;;;;5058554;28;20041;-79
2022/04/03 05:17:08;;;;;;;7.55;4.60;;;1.10;99.90;;;;;;5040614;28;20071;-79
2022/04/03 05:19:36;;;;;;;9.23;4.15;;;1.20;99.90;;;;;;5037590;28;20024;-79
2022/04/03 05:22:02;;;;;;;9.68;4.28;;;1.20;99.90;;;;;;5056070;28;20045;-79
2022/04/03 05:24:28;;;;;;;10.27;4.35;;;1.20;99.90;;;;;;5055337;28;20631;-77
2022/04/03 05:26:54;;;;;;;10.65;4.75;;;1.20;99.90;;;;;;5054120;28;20087;-78
2022/04/03 05:29:20;;;;;;;8.90;4.50;;;1.20;99.90;;;;;;5055195;28;20024;-78
2022/04/03 05:31:45;;;;;;;8.38;5.13;;;1.20;99.90;;;;;;5054317;28;20039;-78
2022/04/03 05:34:11;;;;;;;10.25;4.35;;;1.30;99.90;;;;;;5051925;28;20028;-78
2022/04/03 05:36:37;;;;;;;8.55;4.15;;;1.40;99.90;;;;;;5052921;28;20065;-79
2022/04/03 05:39:04;;;;;;;8.98;4.55;;;1.40;99.90;;;;;;5049285;28;20032;-77
2022/04/03 05:41:36;;;;;;;9.07;4.25;;;1.40;99.90;;;;;;5049619;28;20169;-78
2022/04/03 05:44:02;;;;;;;9.38;3.83;;;1.40;99.90;;;;;;5034627;28;20040;-78
2022/04/03 05:46:28;;;;;;;8.70;4.13;;;1.40;99.90;;;;;;5035604;28;20025;-78
2022/04/03 05:48:54;;;;;;;7.78;4.00;;;1.50;99.90;;;;;;5035078;28;20068;-78
2022/04/03 05:51:20;;;;;;;12.32;4.53;;;1.60;99.90;;;;;;5053657;28;20037;-78
2022/04/03 05:53:46;;;;;;;7.97;4.95;;;1.60;99.90;;;;;;5068944;28;20028;-78
2022/04/03 05:56:12;;;;;;;7.03;4.20;;;1.60;99.90;;;;;;5051515;28;20045;-78
2022/04/03 05:58:37;;;;;;;10.77;4.05;;;1.70;99.90;;;;;;5048812;28;20136;-78
2022/04/03 06:01:03;;;;;;;7.45;4.20;;;1.70;99.90;;;;;;5052357;28;20246;-78
2022/04/03 06:03:29;;;;;;;7.53;4.30;;;1.80;99.90;;;;;;5054022;28;20441;-78
2022/04/03 06:05:54;;;;;;;8.30;3.92;;;1.90;99.90;;;;;;5053916;28;20032;-77
2022/04/03 06:08:20;;;;;;;8.38;3.92;;;2.00;99.90;;;;;;5057596;28;20040;-77
2022/04/03 06:10:46;;;;;;;6.47;3.70;;;2.00;99.90;;;;;;5057852;28;20033;-78
2022/04/03 06:13:14;;;;;;;9.35;4.57;;;2.00;99.90;;;;;;5057161;28;20583;-77
2022/04/03 06:15:43;;;;;;;5.65;3.33;;;2.10;99.90;;;;;;5040314;28;20681;-77
2022/04/03 06:18:14;;;;;;;5.22;3.28;;;2.20;99.90;;;;;;5057719;28;20021;-78
2022/04/03 06:20:41;;;;;;;6.20;3.72;;;2.30;99.90;;;;;;5078867;28;20025;-77
2022/04/03 06:23:18;;;;;;;8.13;3.55;;;2.40;99.90;;;;;;5063166;28;20081;-77
2022/04/03 06:25:44;;;;;;;9.85;3.42;;;2.50;99.90;;;;;;5046723;28;20021;-77
2022/04/03 06:28:11;;;;;;;7.97;4.38;;;2.60;99.90;;;;;;5071666;28;20017;-77
2022/04/03 06:30:37;;;;;;;7.30;3.35;;;2.60;99.90;;;;;;5082452;28;20025;-77
2022/04/03 06:33:03;;;;;;;10.18;3.88;;;2.60;99.90;;;;;;5064316;28;20013;-77
2022/04/03 06:35:29;;;;;;;5.22;3.53;;;2.70;99.90;;;;;;5057789;28;20047;-78
2022/04/03 06:37:55;;;;;;;6.97;3.55;;;2.80;99.90;;;;;;5062640;28;20812;-77
2022/04/03 06:40:23;;;;;;;7.55;3.42;;;2.80;99.90;;;;;;5082389;28;20238;-78
2022/04/03 06:42:50;;;;;;;6.70;3.60;;;2.80;99.90;;;;;;5065975;28;20186;-78
2022/04/03 06:45:15;;;;;;;7.05;3.65;;;2.80;99.90;;;;;;5051038;28;20075;-79
2022/04/03 06:47:41;;;;;;;7.85;4.47;;;2.80;99.90;;;;;;5063774;28;20040;-78
2022/04/03 06:50:08;;;;;;;5.43;3.42;;;2.80;99.90;;;;;;5065801;28;20067;-78
2022/04/03 06:52:36;;;;;;;6.82;3.67;;;2.80;99.90;;;;;;5097047;28;20037;-78
2022/04/03 06:55:09;;;;;;;6.97;3.70;;;2.90;99.90;;;;;;5063086;28;20029;-78
2022/04/03 06:57:35;;;;;;;6.55;3.70;;;2.90;99.90;;;;;;5062747;28;20040;-77
2022/04/03 07:00:04;;;;;;;8.32;3.80;;;2.90;99.90;;;;;;5073255;28;20032;-77
2022/04/03 07:02:30;;;;;;;8.48;3.88;;;2.80;99.90;;;;;;5076084;28;20021;-78
2022/04/03 07:04:56;;;;;;;10.43;4.30;;;2.90;99.90;;;;;;5058683;28;20441;-77
2022/04/03 07:07:23;;;;;;;5.20;3.50;;;2.90;99.90;;;;;;5072233;28;20033;-78
2022/04/03 07:09:49;;;;;;;7.55;3.65;;;3.00;99.90;;;;;;5043068;28;20057;-77
2022/04/03 07:12:16;;;;;;;5.78;3.28;;;3.00;99.90;;;;;;5054935;28;20096;-77
2022/04/03 07:14:42;;;;;;;5.60;3.10;;;3.10;99.90;;;;;;5071270;28;20762;-80
2022/04/03 07:17:08;;;;;;;6.47;3.65;;;3.10;99.90;;;;;;5050776;28;20024;-78
2022/04/03 07:19:35;;;;;;;6.25;3.35;;;3.20;99.90;;;;;;5065458;28;20966;-78
2022/04/03 07:22:01;;;;;;;7.18;3.83;;;3.30;99.90;;;;;;5091457;28;20049;-79
2022/04/03 07:24:27;;;;;;;6.50;3.60;;;3.40;99.90;;;;;;5074135;28;20040;-79
2022/04/03 07:26:56;;;;;;;6.38;3.50;;;3.40;99.90;;;;;;5072358;28;20036;-76
2022/04/03 07:29:23;;;;;;;9.63;4.03;;;3.50;99.90;;;;;;5053483;28;20025;-78
2022/04/03 07:31:50;;;;;;;7.28;3.42;;;3.60;99.90;;;;;;5070421;28;20052;-79
2022/04/03 07:34:16;;;;;;;6.10;3.28;;;3.60;99.90;;;;;;5052175;28;20033;-79
2022/04/03 07:36:42;;;;;;;4.97;3.33;;;3.70;99.90;;;;;;5092966;28;20028;-78
2022/04/03 07:39:09;;;;;;;5.85;3.60;;;3.80;99.90;;;;;;5064383;28;20841;-81
2022/04/03 07:41:36;;;;;;;6.10;3.42;;;3.90;99.90;;;;;;5084778;28;20029;-79
2022/04/03 07:44:04;;;;;;;4.93;3.70;;;3.90;99.90;;;;;;5068465;28;20043;-81
2022/04/03 07:46:30;;;;;;;5.95;3.65;;;3.90;99.90;;;;;;5054806;28;20178;-80
2022/04/03 07:48:55;;;;;;;6.38;3.90;;;3.90;99.90;;;;;;5070701;28;20119;-81
2022/04/03 07:51:23;;;;;;;6.10;4.30;;;3.90;99.90;;;;;;5056273;28;20446;-81
2022/04/03 07:53:49;;;;;;;7.00;4.32;;;4.00;99.90;;;;;;5061487;28;20029;-80
2022/04/03 07:56:15;;;;;;;5.38;3.95;;;4.00;99.90;;;;;;5035000;28;20071;-80
2022/04/03 07:58:40;;;;;;;7.68;4.25;;;4.00;99.90;;;;;;5053942;28;20088;-79
2022/04/03 08:01:06;;;;;;;6.65;4.53;;;4.00;99.90;;;;;;5061486;28;20029;-80
2022/04/03 08:03:33;;;;;;;8.30;4.30;;;4.10;99.90;;;;;;5034498;28;20503;-78
2022/04/03 08:05:58;;;;;;;5.55;4.03;;;4.10;99.90;;;;;;5087904;28;20017;-80
2022/04/03 08:08:26;;;;;;;6.00;3.90;;;4.20;99.90;;;;;;5054315;28;20679;-79
2022/04/03 08:10:52;;;;;;;6.75;4.15;;;4.20;99.90;;;;;;5068420;28;20029;-78
2022/04/03 08:13:18;;;;;;;5.43;3.75;;;4.20;99.90;;;;;;5051839;28;20086;-78
2022/04/03 08:15:43;;;;;;;3.83;3.42;;;4.10;99.90;;;;;;5048222;28;20063;-78
2022/04/03 08:18:09;;;;;;;5.00;3.85;;;4.10;99.90;;;;;;5023599;28;20493;-78
2022/04/03 08:20:35;;;;;;;4.45;3.67;;;4.10;99.90;;;;;;5043687;28;20052;-78
2022/04/03 08:23:03;;;;;;;5.97;3.60;;;4.20;99.90;;;;;;5045343;28;20037;-79
2022/04/03 08:25:32;;;;;;;7.60;4.60;;;4.40;99.90;;;;;;5046862;28;20489;-79
2022/04/03 08:28:02;;;;;;;7.05;4.03;;;4.50;99.90;;;;;;5026238;28;20033;-79
2022/04/03 08:30:36;;;;;;;5.90;4.30;;;4.60;99.90;;;;;;5037650;28;20457;-80
2022/04/03 08:33:05;;;;;;;7.18;3.70;;;4.70;99.90;;;;;;5039437;28;20029;-80
2022/04/03 08:35:32;;;;;;;7.60;4.07;;;4.80;99.90;;;;;;5057437;28;20151;-80
2022/04/03 08:37:59;;;;;;;6.28;3.88;;;4.80;99.90;;;;;;5055659;28;20089;-80
2022/04/03 08:40:26;;;;;;;6.78;3.72;;;4.60;99.90;;;;;;5057046;28;20021;-79
2022/04/03 08:42:54;;;;;;;9.68;4.47;;;4.40;99.90;;;;;;5058994;28;20033;-79
2022/04/03 08:45:21;;;;;;;6.15;4.30;;;4.40;99.90;;;;;;5051736;28;20033;-79
2022/04/03 08:47:55;;;;;;;7.38;4.00;;;4.40;99.90;;;;;;5054534;28;20037;-79
2022/04/03 08:50:29;;;;;;;4.95;3.67;;;4.50;99.90;;;;;;5056714;28;20029;-79
2022/04/03 08:52:59;;;;;;;7.60;3.90;;;4.60;99.90;;;;;;5058085;28;20162;-78
2022/04/03 08:55:26;;;;;;;4.95;3.47;;;4.70;99.90;;;;;;5072300;28;20028;-77
2022/04/03 08:57:52;;;;;;;5.43;3.75;;;4.80;99.90;;;;;;5056788;28;20040;-77
2022/04/03 09:00:18;;;;;;;5.90;3.72;;;5.10;99.90;;;;;;5056041;28;20127;-77
2022/04/03 09:02:46;;;;;;;7.63;3.60;;;5.30;99.90;;;;;;5039444;28;20535;-78
2022/04/03 09:05:12;;;;;;;6.68;3.60;;;5.30;99.90;;;;;;5058141;28;20041;-76
2022/04/03 09:07:39;;;;;;;5.00;3.55;;;5.10;99.90;;;;;;5056085;28;20094;-77
2022/04/03 09:10:08;;;;;;;6.03;3.53;;;5.10;99.90;;;;;;5066541;28;20017;-77
2022/04/03 09:12:48;;;;;;;5.13;3.47;;;5.10;99.90;;;;;;5071706;28;20033;-77
2022/04/03 09:15:16;;;;;;;6.28;3.55;;;5.20;99.90;;;;;;5051333;28;20037;-78
2022/04/03 09:17:49;;;;;;;5.95;3.70;;;5.40;99.90;;;;;;5048474;28;20033;-77
2022/04/03 09:20:16;;;;;;;6.35;3.17;;;5.50;99.90;;;;;;5050850;28;20060;-78
2022/04/03 09:22:44;;;;;;;6.82;3.45;;;5.70;99.90;;;;;;5034916;28;20025;-78
2022/04/03 09:25:12;;;;;;;8.57;3.35;;;5.70;99.90;;;;;;5068833;28;20092;-78
2022/04/03 09:27:53;;;;;;;9.50;3.20;;;5.70;99.90;;;;;;5055924;28;20025;-77
2022/04/03 09:30:28;;;;;;;5.90;2.38;;;5.80;99.90;;;;;;5054073;28;20029;-80
2022/04/03 09:32:55;;;;;;;6.65;2.35;;;5.90;99.90;;;;;;5052648;28;21136;-79
2022/04/03 09:35:24;;;;;;;5.25;2.40;;;6.10;99.90;;;;;;5038498;28;20325;-78
2022/04/03 09:38:12;;;;;;;4.78;1.95;;;6.20;99.90;;;;;;5056065;28;20071;-78
2022/04/03 09:40:43;;;;;;;4.97;2.03;;;6.30;99.90;;;;;;5033624;28;20055;-78
2022/04/03 09:43:24;;;;;;;5.68;2.30;;;6.30;99.90;;;;;;5051157;28;20035;-78
2022/04/03 09:45:58;;;;;;;5.82;2.35;;;6.40;99.90;;;;;;5053523;28;20037;-80
2022/04/03 09:48:41;;;;;;;4.28;2.72;;;6.50;99.90;;;;;;5051860;28;20087;-76
2022/04/03 09:51:29;;;;;;;6.28;1.83;;;6.50;99.90;;;;;;5052189;28;20035;-78
2022/04/03 09:54:01;;;;;;;8.27;2.00;;;6.40;99.90;;;;;;5036703;28;20037;-75
2022/04/03 09:56:37;;;;;;;4.22;1.50;;;6.50;99.90;;;;;;5056937;28;20029;-77
2022/04/03 09:59:08;;;;;;;4.15;1.80;;;6.70;99.90;;;;;;5055132;28;20025;-79
2022/04/03 10:01:39;;;;;;;6.43;2.47;;;6.80;99.90;;;;;;5047714;28;20239;-77
2022/04/03 10:04:10;;;;;;;5.97;2.30;;;6.80;99.90;;;;;;5051451;28;20334;-80
2022/04/03 10:06:38;;;;;;;5.43;1.90;;;6.80;99.90;;;;;;5062699;28;20033;-78
2022/04/03 10:09:07;;;;;;;4.32;1.75;;;6.90;99.90;;;;;;5064683;28;20041;-80
2022/04/03 10:11:33;;;;;;;9.43;1.80;;;7.00;99.90;;;;;;5056807;28;20047;-80
2022/04/03 10:13:59;;;;;;;5.18;1.75;;;7.20;99.90;;;;;;5053616;28;20025;-77
2022/04/03 10:16:24;;;;;;;5.93;1.83;;;7.30;99.90;;;;;;5054958;28;20159;-76
2022/04/03 10:18:51;;;;;;;4.47;1.50;;;7.50;99.90;;;;;;5055046;28;20052;-79
2022/04/03 10:21:30;;;;;;;5.38;1.38;;;7.40;99.50;;;;;;5038214;28;20025;-78
2022/04/03 10:24:05;;;;;;;4.95;2.05;;;7.20;99.90;;;;;;5059058;28;20137;-78
2022/04/03 10:26:37;;;;;;;4.55;1.27;;;7.10;99.90;;;;;;5036843;28;20017;-80
2022/04/03 10:29:07;;;;;;;4.43;1.30;;;7.10;99.90;;;;;;5053627;28;20067;-78
2022/04/03 10:31:32;;;;;;;3.50;1.10;;;7.00;99.90;;;;;;5053316;28;20262;-81
2022/04/03 10:33:58;;;;;;;3.85;1.08;;;7.10;99.90;;;;;;5038195;28;20033;-80
2022/04/03 10:36:27;;;;;;;4.60;1.00;;;7.10;99.90;;;;;;5053552;28;20116;-79
2022/04/03 10:39:20;;;;;;;2.42;0.95;;;7.10;99.90;;;;;;5056804;28;20056;-79
2022/04/03 10:41:46;;;;;;;2.85;0.90;;;7.00;99.90;;;;;;5069080;28;20103;-78
2022/04/03 10:44:22;;;;;;;2.83;0.95;;;7.00;99.90;;;;;;5057918;28;20036;-80
2022/04/03 10:47:03;;;;;;;5.75;1.52;;;7.10;99.90;;;;;;5053653;28;20048;-79
2022/04/03 10:49:56;;;;;;;4.18;1.17;;;7.00;99.90;;;;;;5051807;28;20037;-80
2022/04/03 10:52:24;;;;;;;4.00;0.90;;;6.90;99.90;;;;;;5045941;28;20025;-78
2022/04/03 10:54:54;;;;;;;99.63;22.40;;;6.90;99.90;;;;;;5034513;28;20461;-79
2022/04/03 10:57:45;;;;;;;11.00;3.03;;;6.90;99.90;;;;;;5036538;28;20028;-77
2022/04/03 11:00:13;;;;;;;2.83;0.93;;;6.80;99.90;;;;;;5054664;28;20100;-80
2022/04/03 11:02:40;;;;;;;2.72;0.50;;;6.60;99.90;;;;;;5068221;28;20051;-79
2022/04/03 11:05:21;;;;;;;11.27;2.40;;;6.50;99.90;;;;;;5052726;28;20024;-80
2022/04/03 11:07:59;;;;;;;1.83;0.50;;;6.50;99.90;;;;;;5045866;28;20029;-78
2022/04/03 11:10:56;;;;;;;6.72;1.58;;;6.40;99.90;;;;;;5037708;28;20060;-78
2022/04/03 11:13:30;;;;;;;3.22;0.80;;;6.40;99.90;;;;;;5053750;28;20812;-79
2022/04/03 11:16:08;;;;;;;4.25;0.90;;;6.60;99.90;;;;;;5085985;28;20032;-77
2022/04/03 11:18:45;;;;;;;4.43;0.85;;;7.30;99.90;;;;;;5070421;28;20079;-78
2022/04/03 11:21:14;;;;;;;3.30;0.90;;;9.50;96.60;;;;;;5067083;28;20052;-77
2022/04/03 11:23:49;;;;;;;3.97;1.20;;;11.00;90.60;;;;;;5061575;28;20036;-78
2022/04/03 11:26:15;;;;;;;4.03;0.90;;;12.20;90.00;;;;;;5072481;28;20047;-80
2022/04/03 11:28:43;;;;;;;2.67;0.73;;;13.60;75.90;;;;;;5046063;28;20029;-78
2022/04/03 11:31:10;;;;;;;1.25;0.70;;;14.30;67.60;;;;;;5058965;28;20031;-80
2022/04/03 11:33:37;;;;;;;1.15;0.70;;;14.90;68.20;;;;;;5047610;28;20046;-78
2022/04/03 11:36:12;;;;;;;3.50;1.20;;;15.90;65.10;;;;;;5046256;28;20032;-76
2022/04/03 11:38:46;;;;;;;1.38;0.95;;;16.60;57.40;;;;;;5054521;28;20036;-77
2022/04/03 11:41:14;;;;;;;4.57;1.05;;;16.40;56.90;;;;;;5067616;28;20024;-77
2022/04/03 11:43:41;;;;;;;2.00;1.05;;;16.40;54.90;;;;;;5052064;28;20024;-78
2022/04/03 11:46:08;;;;;;;2.70;0.93;;;16.10;56.70;;;;;;5051166;28;20032;-77
2022/04/03 11:48:37;;;;;;;2.97;1.45;;;15.50;54.30;;;;;;5067014;28;20024;-77
2022/04/03 11:51:11;;;;;;;3.10;1.08;;;15.30;58.50;;;;;;5050312;28;20029;-77
2022/04/03 11:53:39;;;;;;;2.53;1.50;;;15.20;56.00;;;;;;5069137;28;20151;-77
2022/04/03 11:56:26;;;;;;;3.65;1.23;;;14.40;56.30;;;;;;5072008;28;20049;-77
2022/04/03 11:58:56;;;;;;;4.68;1.48;;;13.10;58.50;;;;;;5055623;28;20040;-76
2022/04/03 12:01:30;;;;;;;2.53;1.20;;;11.90;62.10;;;;;;5046570;28;20020;-76
2022/04/03 12:04:13;;;;;;;3.45;0.90;;;10.90;66.70;;;;;;5065893;28;20035;-76
2022/04/03 12:06:40;;;;;;;1.90;0.82;;;10.10;70.80;;;;;;5088864;28;20052;-77
2022/04/03 12:09:18;;;;;;;2.88;0.60;;;9.60;76.80;;;;;;5074332;28;20480;-77
2022/04/03 12:11:48;;;;;;;3.40;0.65;;;9.40;80.10;;;;;;5037760;28;20063;-76
2022/04/03 12:14:30;;;;;;;3.60;0.70;;;9.20;83.00;;;;;;5044411;28;20076;-77
2022/04/03 12:17:02;;;;;;;3.38;0.90;;;9.40;86.60;;;;;;5070329;28;20028;-77
2022/04/03 12:19:30;;;;;;;3.45;0.80;;;10.20;83.30;;;;;;5095774;28;20032;-77
2022/04/03 12:22:00;;;;;;;4.53;1.20;;;10.90;81.10;;;;;;5073886;28;20024;-77
2022/04/03 12:24:31;;;;;;;3.47;0.80;;;11.00;78.30;;;;;;5056496;28;20020;-76
2022/04/03 12:27:06;;;;;;;4.18;0.80;;;10.80;74.30;;;;;;5060995;28;20504;-78
2022/04/03 12:29:35;;;;;;;6.40;0.80;;;10.80;75.70;;;;;;5072032;28;20045;-77
2022/04/03 12:32:06;;;;;;;5.30;0.80;;;10.80;74.70;;;;;;5054436;28;20036;-76
2022/04/03 12:34:37;;;;;;;1.63;0.85;;;10.60;73.90;;;;;;5040212;28;20525;-76
2022/04/03 12:37:04;;;;;;;6.28;1.10;;;10.30;75.80;;;;;;5072465;28;20055;-77
2022/04/03 12:39:36;;;;;;;3.63;0.90;;;10.00;77.10;;;;;;5045551;28;20029;-76
2022/04/03 12:42:15;;;;;;;4.32;1.27;;;9.60;79.60;;;;;;5076350;28;20477;-77
2022/04/03 12:44:59;;;;;;;4.45;1.30;;;9.20;83.10;;;;;;5033171;28;20622;-75
2022/04/03 12:47:32;;;;;;;4.80;1.05;;;8.90;87.00;;;;;;5066815;28;20402;-76
2022/04/03 12:50:07;;;;;;;12.88;1.58;;;8.60;91.60;;;;;;5052845;28;20031;-76
2022/04/03 12:52:38;;;;;;;3.95;1.10;;;8.40;93.00;;;;;;5071991;28;20488;-76
2022/04/03 12:55:05;;;;;;;4.40;1.23;;;8.10;93.90;;;;;;5047689;28;20478;-76
2022/04/03 13:00:17;;;;;;;6.20;1.45;;;7.70;98.80;;;;;;5070865;28;20023;-76
2022/04/03 13:02:44;;;;;;;3.17;1.20;;;7.60;99.90;;;;;;5032601;28;20029;-76
2022/04/03 13:05:15;;;;;;;4.60;1.10;;;7.60;99.90;;;;;;5041102;28;20028;-76